createdAt,value
2019-05-09T00:05:05.584Z,94851.77
2019-05-09T00:08:15.881Z,94884.22
2019-05-09T00:10:58.741Z,94886.69
2019-05-09T00:13:48.447Z,94887.36
2019-05-09T00:16:33.359Z,94889.08
2019-05-09T00:19:23.750Z,94894.36
2019-05-09T00:22:07.012Z,94894.52
2019-05-09T00:24:56.773Z,94881.93
2019-05-09T00:27:39.660Z,94882.86
2019-05-09T00:30:48.197Z,94872.20
2019-05-09T00:33:34.076Z,94873.95
2019-05-09T00:36:23.207Z,94856.89
2019-05-09T00:39:07.073Z,94856.89
2019-05-09T00:41:56.921Z,94831.16
2019-05-09T00:44:43.132Z,94855.59
2019-05-09T00:47:33.062Z,94857.39
2019-05-09T00:50:17.226Z,94852.19
2019-05-09T00:53:07.101Z,94857.64
2019-05-09T00:55:49.295Z,94839.29
2019-05-09T00:58:38.981Z,94817.67
2019-05-09T01:01:21.126Z,94842.36
2019-05-09T01:04:12.989Z,94839.88
2019-05-09T01:06:55.476Z,94859.61
2019-05-09T01:09:45.226Z,94851.30
2019-05-09T01:12:27.411Z,94858.11
2019-05-09T01:15:17.505Z,94862.76
2019-05-09T01:17:59.994Z,94848.66
2019-05-09T01:20:49.722Z,94851.42
2019-05-09T01:23:34.351Z,94852.64
2019-05-09T01:26:24.318Z,94851.13
2019-05-09T01:29:08.144Z,94860.36
2019-05-09T01:35:15.446Z,94852.81
2019-05-09T01:38:05.228Z,94855.99
2019-05-09T01:40:47.400Z,94856.57
2019-05-09T01:43:37.194Z,94850.22
2019-05-09T01:46:19.966Z,94849.64
2019-05-09T01:49:09.706Z,94852.00
2019-05-09T01:51:53.793Z,94839.87
2019-05-09T01:57:47.966Z,94851.31
2019-05-09T02:00:37.774Z,94847.63
2019-05-09T02:03:19.762Z,94844.14
2019-05-09T02:06:09.470Z,94845.11
2019-05-09T02:08:54.252Z,94843.56
2019-05-09T02:15:06.034Z,94834.77
2019-05-09T02:18:14.734Z,94845.19
2019-05-09T02:20:57.215Z,94822.62
2019-05-09T02:26:47.901Z,94830.61
2019-05-09T02:29:37.624Z,94834.13
2019-05-09T02:32:19.802Z,94802.48
2019-05-09T02:38:08.443Z,94821.70
2019-05-09T02:40:59.479Z,94814.55
2019-05-09T02:43:41.773Z,94805.09
2019-05-09T02:46:50.363Z,94786.24
2019-05-09T02:49:40.114Z,94821.75
2019-05-09T02:52:29.911Z,94829.30
2019-05-09T02:55:19.615Z,94827.73
2019-05-09T02:58:03.226Z,94813.47
2019-05-09T03:01:11.785Z,94833.40
2019-05-09T03:04:20.315Z,94830.12
2019-05-09T03:07:02.629Z,94804.27
2019-05-09T03:09:52.449Z,94824.88
2019-05-09T03:12:54.686Z,94800.56
2019-05-09T03:18:52.036Z,94782.03
2019-05-09T03:24:41.984Z,94808.83
2019-05-09T03:27:28.969Z,94806.33
2019-05-09T03:30:20.603Z,94795.87
2019-05-09T03:33:00.682Z,94790.30
2019-05-09T03:35:50.427Z,94761.72
2019-05-09T03:38:40.186Z,94775.94
2019-05-09T03:41:29.912Z,94753.39
2019-05-09T03:44:12.542Z,94767.23
2019-05-09T03:47:21.160Z,94769.16
2019-05-09T03:50:25.292Z,94768.94
2019-05-09T03:53:08.475Z,94759.25
2019-05-09T03:55:52.497Z,94751.69
2019-05-09T03:58:42.297Z,94732.81
2019-05-09T04:01:32.028Z,94748.36
2019-05-09T04:04:14.947Z,94729.12
2019-05-09T04:07:04.683Z,94739.52
2019-05-09T04:13:03.041Z,94744.43
2019-05-09T04:15:47.194Z,94729.04
2019-05-09T04:18:37.712Z,94752.14
2019-05-09T04:21:21.214Z,94755.83
2019-05-09T04:24:11.375Z,94754.63
2019-05-09T04:30:20.276Z,94751.55
2019-05-09T04:33:10.044Z,94753.85
2019-05-09T04:35:53.944Z,94757.53
2019-05-09T04:38:43.660Z,94758.90
2019-05-09T04:41:28.607Z,94755.41
2019-05-09T04:45:02.787Z,94759.05
2019-05-09T04:47:43.443Z,94762.88
2019-05-09T04:50:31.552Z,94759.65
2019-05-09T04:53:13.808Z,94738.19
2019-05-09T04:59:10.376Z,94757.17
2019-05-09T05:02:18.927Z,94745.36
2019-05-09T05:05:01.811Z,94730.96
2019-05-09T05:07:51.524Z,94729.23
2019-05-09T05:10:34.352Z,94734.83
2019-05-09T05:13:26.781Z,94734.66
2019-05-09T05:16:09.191Z,94722.06
2019-05-09T05:18:58.895Z,94713.31
2019-05-09T05:21:41.013Z,94730.45
2019-05-09T05:24:49.559Z,94708.17
2019-05-09T05:27:32.235Z,94723.40
2019-05-09T05:33:45.043Z,94713.82
2019-05-09T05:36:28.188Z,94726.78
2019-05-09T05:38:59.404Z,94723.23
2019-05-09T05:41:49.886Z,94724.29
2019-05-09T05:44:40.191Z,94723.25
2019-05-09T05:47:49.272Z,94726.76
2019-05-09T05:50:32.584Z,94716.81
2019-05-09T05:56:28.021Z,94710.59
2019-05-09T05:59:11.771Z,94712.95
2019-05-09T06:02:01.545Z,94708.19
2019-05-09T06:04:51.377Z,94701.53
2019-05-09T06:07:41.191Z,94698.05
2019-05-09T06:10:30.979Z,94693.61
2019-05-09T06:13:20.740Z,94670.53
2019-05-09T06:16:10.479Z,94702.82
2019-05-09T06:19:00.439Z,94699.94
2019-05-09T06:24:53.834Z,94713.95
2019-05-09T06:27:37.564Z,94715.43
2019-05-09T06:33:46.241Z,94718.08
2019-05-09T06:36:33.617Z,94733.67
2019-05-09T06:39:23.399Z,94728.05
2019-05-09T06:42:13.181Z,94719.45
2019-05-09T06:48:00.021Z,94712.44
2019-05-09T06:50:48.417Z,94706.89
2019-05-09T06:53:39.356Z,94713.75
2019-05-09T06:56:21.435Z,94702.07
2019-05-09T06:59:31.719Z,94719.61
2019-05-09T07:08:38.057Z,94726.48
2019-05-09T07:11:20.941Z,94745.02
2019-05-09T07:14:32.395Z,94754.03
2019-05-09T07:17:12.027Z,94722.37
2019-05-09T07:19:54.893Z,94742.59
2019-05-09T07:22:44.582Z,94745.27
2019-05-09T07:25:48.550Z,94746.06
2019-05-09T07:28:38.291Z,94732.56
2019-05-09T07:31:39.274Z,94754.83
2019-05-09T07:34:47.787Z,94743.02
2019-05-09T07:37:30.097Z,94753.43
2019-05-09T07:40:19.787Z,94763.51
2019-05-09T07:43:09.498Z,94762.30
2019-05-09T07:46:12.541Z,94762.13
2019-05-09T07:49:04.761Z,94765.36
2019-05-09T07:51:54.567Z,94760.37
2019-05-09T07:57:54.900Z,94765.80
2019-05-09T08:00:32.578Z,94769.25
2019-05-09T08:03:22.267Z,94769.71
2019-05-09T08:06:11.986Z,94774.39
2019-05-09T08:12:02.759Z,94783.16
2019-05-09T08:15:07.616Z,94780.48
2019-05-09T08:17:38.101Z,94747.59
2019-05-09T08:20:28.043Z,94754.02
2019-05-09T08:23:12.227Z,94741.64
2019-05-09T08:26:04.469Z,94722.92
2019-05-09T08:28:47.997Z,94718.76
2019-05-09T08:31:40.082Z,94751.33
2019-05-09T08:34:22.027Z,94752.89
2019-05-09T08:37:12.690Z,94757.84
2019-05-09T08:39:57.781Z,94738.16
2019-05-09T08:42:48.097Z,94761.72
2019-05-09T08:45:31.623Z,94754.50
2019-05-09T08:48:21.516Z,94748.58
2019-05-09T08:54:49.753Z,94757.45
2019-05-09T08:57:39.441Z,94763.19
2019-05-09T09:00:23.093Z,94766.79
2019-05-09T09:06:15.241Z,94759.66
2019-05-09T09:09:25.528Z,94753.98
2019-05-09T09:12:25.269Z,94761.66
2019-05-09T09:14:59.266Z,94766.06
2019-05-09T09:17:30.040Z,94769.56
2019-05-09T09:20:19.757Z,94763.59
2019-05-09T09:23:02.067Z,94741.25
2019-05-09T09:25:51.791Z,94754.49
2019-05-09T09:28:34.361Z,94757.53
2019-05-09T09:31:24.095Z,94742.16
2019-05-09T09:34:07.908Z,94744.86
2019-05-09T09:37:04.312Z,94714.30
2019-05-09T09:39:44.709Z,94738.11
2019-05-09T09:42:34.707Z,94736.92
2019-05-09T09:45:19.088Z,94735.83
2019-05-09T09:48:09.375Z,94732.92
2019-05-09T09:50:53.342Z,94727.23
2019-05-09T09:53:43.113Z,94733.34
2019-05-09T09:56:27.985Z,94725.86
2019-05-09T10:02:12.440Z,94739.33
2019-05-09T10:05:02.237Z,94716.62
2019-05-09T10:07:51.933Z,94709.63
2019-05-09T10:10:35.407Z,94727.52
2019-05-09T10:13:25.148Z,94727.98
2019-05-09T10:16:33.784Z,94725.52
2019-05-09T10:19:42.325Z,94738.36
2019-05-09T10:22:26.106Z,94728.84
2019-05-09T10:25:18.273Z,94728.63
2019-05-09T10:28:00.114Z,94697.64
2019-05-09T10:30:49.874Z,94714.58
2019-05-09T10:33:39.759Z,94687.47
2019-05-09T10:36:29.455Z,94723.08
2019-05-09T10:45:45.214Z,94730.65
2019-05-09T10:48:34.974Z,94703.50
2019-05-09T10:51:18.537Z,94666.99
2019-05-09T10:54:08.475Z,94694.47
2019-05-09T10:56:50.808Z,94700.53
2019-05-09T10:59:40.523Z,94692.77
2019-05-09T11:02:23.368Z,94686.25
2019-05-09T11:08:10.756Z,94695.16
2019-05-09T11:10:53.164Z,94668.75
2019-05-09T11:13:42.982Z,94669.20
2019-05-09T11:16:44.902Z,94680.52
2019-05-09T11:19:18.346Z,94686.47
2019-05-09T11:22:08.301Z,94662.00
2019-05-09T11:24:58.201Z,94690.39
2019-05-09T11:27:42.251Z,94680.78
2019-05-09T11:30:32.058Z,94680.28
2019-05-09T11:33:21.840Z,94654.98
2019-05-09T11:36:12.025Z,94684.92
2019-05-09T11:38:55.395Z,94700.18
2019-05-09T11:41:48.806Z,94712.19
2019-05-09T11:44:31.360Z,94701.57
2019-05-09T11:47:31.696Z,94717.34
2019-05-09T11:50:05.382Z,94697.17
2019-05-09T11:52:55.138Z,94731.12
2019-05-09T11:55:44.868Z,94729.27
2019-05-09T12:01:39.705Z,94723.13
2019-05-09T12:04:23.580Z,94725.38
2019-05-09T12:10:09.855Z,94728.38
2019-05-09T12:12:59.573Z,94732.56
2019-05-09T12:15:42.462Z,94726.16
2019-05-09T12:18:32.184Z,94721.95
2019-05-09T12:21:15.115Z,94710.19
2019-05-09T12:24:04.846Z,94739.53
2019-05-09T12:30:15.110Z,94745.09
2019-05-09T12:33:04.789Z,94718.07
2019-05-09T12:35:47.791Z,94719.63
2019-05-09T12:38:38.883Z,94719.14
2019-05-09T12:41:22.637Z,94704.04
2019-05-09T12:44:12.388Z,94729.79
2019-05-09T12:46:58.135Z,94733.61
2019-05-09T12:49:48.808Z,94750.27
2019-05-09T12:52:31.866Z,94725.67
2019-05-09T12:55:21.573Z,94726.87
2019-05-09T12:58:04.321Z,94720.20
2019-05-09T13:00:54.134Z,94723.11
2019-05-09T13:03:38.215Z,94723.86
2019-05-09T13:06:29.595Z,94755.25
2019-05-09T13:09:19.562Z,94771.94
2019-05-09T13:12:09.282Z,94780.31
2019-05-09T13:14:52.119Z,94784.86
2019-05-09T13:17:43.952Z,94771.34
2019-05-09T13:20:33.788Z,94786.75
2019-05-09T13:26:28.949Z,94783.31
2019-05-09T13:29:11.797Z,94795.31
2019-05-09T13:32:01.547Z,94779.24
2019-05-09T13:34:51.341Z,94787.78
2019-05-09T13:37:41.150Z,94794.60
2019-05-09T13:40:30.925Z,94789.63
2019-05-09T13:43:20.699Z,94802.36
2019-05-09T13:46:10.429Z,94794.48
2019-05-09T13:49:11.100Z,94795.80
2019-05-09T13:51:50.990Z,94806.69
2019-05-09T13:54:38.064Z,94788.55
2019-05-09T13:57:19.986Z,94780.31
2019-05-09T14:00:10.015Z,94797.14
2019-05-09T14:02:59.771Z,94805.64
2019-05-09T14:06:01.945Z,94808.98
2019-05-09T14:08:43.929Z,94784.86
2019-05-09T14:11:33.625Z,94795.50
2019-05-09T14:14:17.920Z,94798.52
2019-05-09T14:17:09.828Z,94798.52
2019-05-09T14:19:52.302Z,94782.50
2019-05-09T14:22:42.063Z,94800.69
2019-05-09T14:25:24.450Z,94776.06
2019-05-09T14:28:14.178Z,94801.03
2019-05-09T14:30:59.326Z,94810.27
2019-05-09T14:33:48.506Z,94821.31
2019-05-09T14:36:30.425Z,94839.97
2019-05-09T14:39:20.152Z,94862.55
2019-05-09T14:42:02.463Z,94869.57
2019-05-09T14:44:52.191Z,94878.02
2019-05-09T14:47:38.572Z,94861.64
2019-05-09T14:50:28.337Z,94906.99
2019-05-09T14:53:10.270Z,94914.44
2019-05-09T14:56:00.003Z,94906.11
2019-05-09T14:58:42.963Z,94901.59
2019-05-09T15:01:32.677Z,94918.12
2019-05-09T15:04:15.183Z,94927.75
2019-05-09T15:07:04.886Z,94911.87
2019-05-09T15:09:47.108Z,94900.47
2019-05-09T15:12:39.002Z,94925.78
2019-05-09T15:15:21.211Z,94922.91
2019-05-09T15:18:10.997Z,94910.98
2019-05-09T15:20:53.414Z,94924.63
2019-05-09T15:23:43.124Z,94918.50
2019-05-09T15:26:27.558Z,94914.83
2019-05-09T15:29:17.471Z,94923.03
2019-05-09T15:32:04.738Z,94928.09
2019-05-09T15:34:51.280Z,94913.74
2019-05-09T15:37:33.823Z,94934.72
2019-05-09T15:40:23.562Z,94893.11
2019-05-09T15:43:08.324Z,94918.65
2019-05-09T15:46:18.467Z,94925.84
2019-05-09T15:49:07.830Z,94914.72
2019-05-09T15:51:50.215Z,94919.39
2019-05-09T15:54:39.941Z,94929.17
2019-05-09T15:57:22.181Z,94922.73
2019-05-09T16:03:14.791Z,94930.98
2019-05-09T16:08:51.379Z,94918.70
2019-05-09T16:11:37.770Z,94922.54
2019-05-09T16:14:20.432Z,94927.97
2019-05-09T16:17:10.216Z,94922.81
2019-05-09T16:20:00.014Z,94939.78
2019-05-09T16:22:49.811Z,94936.33
2019-05-09T16:28:43.329Z,94946.20
2019-05-09T16:31:27.873Z,94945.86
2019-05-09T16:34:18.030Z,94943.63
2019-05-09T16:37:09.263Z,94947.02
2019-05-09T16:39:52.151Z,94945.73
2019-05-09T16:42:41.934Z,94952.36
2019-05-09T16:45:31.797Z,94954.19
2019-05-09T16:48:21.866Z,94975.91
2019-05-09T16:51:11.839Z,94974.58
2019-05-09T16:54:01.639Z,94959.12
2019-05-09T16:56:51.416Z,94975.51
2019-05-09T16:59:41.317Z,94983.72
2019-05-09T17:02:31.081Z,94974.50
2019-05-09T17:05:20.865Z,94978.13
2019-05-09T17:08:10.613Z,94987.97
2019-05-09T17:10:53.143Z,94986.77
2019-05-09T17:13:42.956Z,94996.86
2019-05-09T17:16:33.029Z,95016.98
2019-05-09T17:19:22.835Z,95011.86
2019-05-09T17:25:10.716Z,95040.78
2019-05-09T17:28:00.446Z,95039.91
2019-05-09T17:30:42.610Z,95053.07
2019-05-09T17:33:32.347Z,95027.23
2019-05-09T17:36:14.804Z,95055.53
2019-05-09T17:41:59.930Z,95063.80
2019-05-09T17:44:49.699Z,95070.72
2019-05-09T17:47:39.520Z,95068.09
2019-05-09T17:50:29.277Z,95070.83
2019-05-09T17:53:33.865Z,95077.30
2019-05-09T17:56:15.975Z,95051.12
2019-05-09T17:59:05.739Z,95079.75
2019-05-09T18:01:48.609Z,95085.40
2019-05-09T18:04:38.334Z,95087.80
2019-05-09T18:07:09.044Z,95086.09
2019-05-09T18:09:58.741Z,95093.58
2019-05-09T18:12:40.982Z,95072.44
2019-05-09T18:15:30.686Z,95085.95
2019-05-09T18:18:15.191Z,95093.03
2019-05-09T18:21:05.183Z,95080.80
2019-05-09T18:23:48.045Z,95104.65
2019-05-09T18:26:18.764Z,95108.56
2019-05-09T18:29:08.480Z,95112.05
2019-05-09T18:38:07.984Z,95103.81
2019-05-09T18:40:51.698Z,95124.52
2019-05-09T18:43:41.515Z,95134.60
2019-05-09T18:46:31.652Z,95135.72
2019-05-09T18:49:21.452Z,95113.13
2019-05-09T18:52:11.271Z,95139.33
2019-05-09T18:55:01.096Z,95140.09
2019-05-09T18:57:50.888Z,95146.49
2019-05-09T19:00:40.762Z,95144.97
2019-05-09T19:03:30.690Z,95152.16
2019-05-09T19:06:20.487Z,95153.59
2019-05-09T19:09:10.228Z,95168.16
2019-05-09T19:11:54.274Z,95161.23
2019-05-09T19:18:00.633Z,95177.73
2019-05-09T19:23:59.731Z,95179.77
2019-05-09T19:26:49.475Z,95204.27
2019-05-09T19:29:33.464Z,95212.75
2019-05-09T19:32:23.220Z,95215.63
2019-05-09T19:35:05.213Z,95197.66
2019-05-09T19:37:55.030Z,95221.97
2019-05-09T19:40:37.762Z,95232.27
2019-05-09T19:43:27.610Z,95227.55
2019-05-09T19:46:10.393Z,95244.46
2019-05-09T19:49:00.126Z,95238.11
2019-05-09T19:51:42.707Z,95250.25
2019-05-09T19:54:32.487Z,95249.47
2019-05-09T19:57:14.871Z,95232.85
2019-05-09T20:00:04.807Z,95251.33
2019-05-09T20:02:47.189Z,95250.63
2019-05-09T20:05:37.021Z,95257.59
2019-05-09T20:08:26.838Z,95260.74
2019-05-09T20:14:21.203Z,95274.02
2019-05-09T20:17:10.992Z,95264.70
2019-05-09T20:19:53.975Z,95269.19
2019-05-09T20:22:52.548Z,95276.58
2019-05-09T20:25:31.659Z,95276.22
2019-05-09T20:28:21.581Z,95278.17
2019-05-09T20:31:04.297Z,95278.78
2019-05-09T20:33:54.039Z,95279.05
2019-05-09T20:36:43.745Z,95285.85
2019-05-09T20:39:26.513Z,95285.20
2019-05-09T20:42:16.474Z,95287.77
2019-05-09T20:48:00.936Z,95295.75
2019-05-09T20:50:32.125Z,95274.20
2019-05-09T20:53:22.309Z,95300.42
2019-05-09T20:56:12.617Z,95301.72
2019-05-09T20:58:56.201Z,95292.80
2019-05-09T21:01:46.747Z,95293.80
2019-05-09T21:04:36.904Z,95291.69
2019-05-09T21:10:18.257Z,95291.36
2019-05-09T21:13:09.316Z,95294.15
2019-05-09T21:15:51.997Z,95290.65
2019-05-09T21:18:42.781Z,95295.57
2019-05-09T21:21:29.170Z,95303.12
2019-05-09T21:24:18.446Z,95303.16
2019-05-09T21:27:01.359Z,95315.42
2019-05-09T21:29:51.610Z,95305.11
2019-05-09T21:32:35.217Z,95278.98
2019-05-09T21:35:25.015Z,95275.71
2019-05-09T21:38:07.938Z,95295.63
2019-05-09T21:40:57.668Z,95297.80
2019-05-09T21:43:40.015Z,95297.05
2019-05-09T21:46:29.745Z,95302.38
2019-05-09T21:49:12.179Z,95305.16
2019-05-09T21:52:01.911Z,95307.11
2019-05-09T21:54:44.630Z,95312.94
2019-05-09T21:57:34.350Z,95311.02
2019-05-09T22:00:20.744Z,95314.16
2019-05-09T22:03:10.684Z,95321.86
2019-05-09T22:05:53.152Z,95330.19
2019-05-09T22:08:42.907Z,95329.83
2019-05-09T22:11:27.342Z,95328.25
2019-05-09T22:14:17.076Z,95327.45
2019-05-09T22:23:31.286Z,95335.01
2019-05-09T22:26:17.614Z,95339.23
2019-05-09T22:31:46.886Z,95338.02
2019-05-09T22:34:36.936Z,95342.27
2019-05-09T22:37:19.400Z,95343.21
2019-05-09T22:43:16.609Z,95348.08
2019-05-09T22:46:06.807Z,95349.83
2019-05-09T22:48:48.949Z,95347.98
2019-05-09T22:51:38.859Z,95347.06
2019-05-09T22:54:21.872Z,95318.05
2019-05-09T22:57:05.510Z,95353.73
2019-05-09T22:59:55.592Z,95349.23
2019-05-09T23:02:46.186Z,95356.04
2019-05-09T23:05:35.932Z,95351.93
2019-05-09T23:08:22.911Z,95348.62
2019-05-09T23:11:12.666Z,95347.51
2019-05-09T23:13:55.200Z,95352.53
2019-05-09T23:16:44.950Z,95340.28
2019-05-09T23:19:27.004Z,95355.09
2019-05-09T23:22:16.872Z,95352.73
2019-05-09T23:25:01.470Z,95343.00
2019-05-09T23:27:44.181Z,95329.47
2019-05-09T23:30:34.119Z,95331.75
2019-05-09T23:36:20.676Z,95336.92
2019-05-09T23:39:29.224Z,95354.75
2019-05-09T23:42:12.176Z,95337.13
2019-05-09T23:45:01.939Z,95356.50
2019-05-09T23:47:44.632Z,95360.36
2019-05-09T23:50:34.330Z,95342.42
2019-05-09T23:53:19.443Z,95363.64
2019-05-09T23:56:27.949Z,95366.34
2019-05-09T23:59:28.797Z,95363.42
